Time;durP1;ratioP1;P1;durP2;ratioP2;P2;SDS_P1;SDS_P2;PMS_P1;PMS_P2;Temp;Humidity;BMP_temperature;BMP_pressure;BME280_temperature;BME280_humidity;BME280_pressure;Samples;Min_cycle;Max_cycle;Signal;HPM_P1;HPM_P2
2022/06/29 00:01:46;;;;;;;17.23;2.20;;;;;;;26.98;51.32;99554.44;7313216;19;130863;-38
2022/06/29 00:04:11;;;;;;;18.43;2.50;;;;;;;26.71;48.38;99547.84;7315275;19;129170;-40
2022/06/29 00:06:37;;;;;;;20.20;2.57;;;;;;;26.28;47.60;99551.00;7314572;19;129353;-39
2022/06/29 00:09:02;;;;;;;21.10;2.77;;;;;;;26.20;47.39;99548.41;7313305;19;130008;-37
2022/06/29 00:11:28;;;;;;;25.73;3.00;;;;;;;26.18;47.35;99542.47;7314059;19;131038;-38
2022/06/29 00:13:53;;;;;;;21.50;2.80;;;;;;;26.36;51.43;99542.25;7313113;19;130771;-39
2022/06/29 00:16:18;;;;;;;8.00;1.47;;;;;;;26.61;51.25;99544.56;7312982;19;130352;-39
2022/06/29 00:18:44;;;;;;;15.93;2.27;;;;;;;26.73;50.43;99535.31;7314512;19;129150;-38
2022/06/29 00:21:09;;;;;;;16.57;2.30;;;;;;;26.82;50.84;99534.25;7313043;19;129801;-40
2022/06/29 00:23:34;;;;;;;11.00;2.10;;;;;;;26.88;50.66;99533.56;7313024;19;129694;-41
2022/06/29 00:26:00;;;;;;;28.40;3.17;;;;;;;26.92;51.71;99534.84;7313042;19;130248;-41
2022/06/29 00:28:25;;;;;;;23.00;3.10;;;;;;;26.96;51.75;99534.53;7314849;19;129145;-40
2022/06/29 00:30:51;;;;;;;20.73;2.80;;;;;;;26.96;50.88;99532.69;7314170;19;129003;-38
2022/06/29 00:33:16;;;;;;;16.03;2.13;;;;;;;26.98;51.34;99535.16;7313204;19;130365;-36
2022/06/29 00:35:41;;;;;;;15.03;2.10;;;;;;;26.97;51.18;99533.50;7313556;19;129174;-38
2022/06/29 00:38:07;;;;;;;13.13;1.83;;;;;;;27.00;51.49;99541.06;7310123;19;129360;-40
2022/06/29 00:40:32;;;;;;;25.97;3.20;;;;;;;27.00;51.53;99535.78;7313549;19;129148;-39
2022/06/29 00:42:58;;;;;;;28.30;3.63;;;;;;;26.31;47.64;99534.03;7313921;19;130266;-39
2022/06/29 00:45:23;;;;;;;19.97;2.57;;;;;;;26.20;47.34;99545.75;7312294;19;129081;-37
2022/06/29 00:47:48;;;;;;;7.97;1.50;;;;;;;26.19;47.43;99545.94;7310915;19;130582;-37
2022/06/29 00:50:14;;;;;;;15.27;2.07;;;;;;;26.29;49.38;99552.66;7313900;19;128943;-40
2022/06/29 00:52:42;;;;;;;14.73;2.00;;;;;;;26.58;51.21;99557.28;7314182;19;129015;-40
2022/06/29 00:55:16;;;;;;;19.98;2.50;;;;;;;26.72;52.14;99567.97;7310900;19;130781;-40
2022/06/29 00:57:44;;;;;;;14.02;2.28;;;;;;;26.80;51.06;99567.94;7310129;19;129109;-37
2022/06/29 01:00:10;;;;;;;18.00;2.58;;;;;;;26.82;51.08;99559.84;7312741;19;128927;-38
2022/06/29 01:02:36;;;;;;;;;;;;;;;27.03;52.95;99567.94;7310732;19;131627;-39
2022/06/29 01:05:03;;;;;;;22.85;2.75;;;;;;;26.97;52.02;99567.81;7312472;19;130097;-39
2022/06/29 01:07:31;;;;;;;27.20;3.33;;;;;;;26.90;51.79;99565.91;7309961;19;129200;-39
2022/06/29 01:09:56;;;;;;;20.27;2.60;;;;;;;26.97;51.76;99573.94;7313274;19;129317;-42
2022/06/29 01:12:23;;;;;;;22.57;2.97;;;;;;;26.98;51.94;99574.72;7313797;19;131403;-37
2022/06/29 01:14:50;;;;;;;41.60;4.82;;;;;;;26.98;51.60;99586.13;7311779;19;130535;-38
2022/06/29 01:17:16;;;;;;;20.73;2.38;;;;;;;26.98;51.45;99585.28;7311552;19;129178;-38
2022/06/29 01:19:43;;;;;;;19.10;2.53;;;;;;;26.74;48.26;99578.34;7314405;19;130663;-40
2022/06/29 01:22:15;;;;;;;17.23;2.05;;;;;;;26.31;48.08;99586.75;7310117;19;130080;-38
2022/06/29 01:24:44;;;;;;;17.10;2.47;;;;;;;26.22;47.44;99583.31;7311059;19;129747;-38
2022/06/29 01:27:10;;;;;;;15.82;2.00;;;;;;;26.19;47.61;99578.38;7310126;19;129053;-39
2022/06/29 01:29:36;;;;;;;29.00;3.42;;;;;;;26.36;50.31;99585.22;7312115;19;128925;-38
2022/06/29 01:32:01;;;;;;;26.73;3.13;;;;;;;26.61;51.56;99578.88;7311786;19;129599;-37
2022/06/29 01:34:28;;;;;;;24.97;3.00;;;;;;;26.73;51.49;99577.53;7311378;19;132662;-40
2022/06/29 01:36:54;;;;;;;29.00;3.75;;;;;;;26.82;51.33;99573.81;7310295;19;129517;-38
2022/06/29 01:39:19;;;;;;;18.87;2.33;;;;;;;26.89;51.26;99572.16;7312072;19;128770;-39
2022/06/29 01:41:45;;;;;;;18.70;2.13;;;;;;;26.93;50.58;99573.44;7311630;19;129281;-39
2022/06/29 01:44:11;;;;;;;12.87;2.03;;;;;;;26.96;51.44;99576.75;7312289;19;129621;-39
2022/06/29 01:46:36;;;;;;;27.07;3.23;;;;;;;26.97;51.14;99567.81;7310590;19;129194;-38
2022/06/29 01:49:01;;;;;;;4.80;1.30;;;;;;;26.94;52.13;99569.81;7311665;19;129021;-40
2022/06/29 01:51:27;;;;;;;29.03;3.53;;;;;;;26.98;52.04;99562.38;7311613;19;130137;-35
2022/06/29 01:53:52;;;;;;;22.03;2.67;;;;;;;27.01;51.60;99563.84;7312420;19;131211;-36
2022/06/29 01:56:18;;;;;;;23.77;2.90;;;;;;;26.99;52.00;99552.63;7311058;19;129216;-40
2022/06/29 01:58:43;;;;;;;16.20;2.00;;;;;;;26.21;47.41;99542.16;7309770;19;129712;-40
2022/06/29 02:01:09;;;;;;;16.20;1.80;;;;;;;26.21;47.61;99550.06;7310820;19;130075;-40
2022/06/29 02:03:35;;;;;;;21.80;2.50;;;;;;;26.20;47.15;99551.03;7310645;19;129292;-39
2022/06/29 02:06:00;;;;;;;24.30;2.57;;;;;;;26.24;48.32;99554.16;7310447;19;129137;-39
2022/06/29 02:08:26;;;;;;;38.97;4.30;;;;;;;26.55;51.66;99547.09;7309599;19;128890;-37
2022/06/29 02:10:51;;;;;;;17.43;2.13;;;;;;;26.70;51.14;99542.75;7311679;19;132212;-39
2022/06/29 02:13:17;;;;;;;15.27;2.03;;;;;;;26.80;51.22;99541.56;7311327;19;130137;-35
2022/06/29 02:15:42;;;;;;;20.20;2.37;;;;;;;26.87;50.66;99542.47;7309950;19;128691;-40
2022/06/29 02:18:07;;;;;;;16.63;2.10;;;;;;;26.92;51.09;99542.78;7308521;19;129981;-38
2022/06/29 02:20:33;;;;;;;38.70;4.07;;;;;;;26.87;51.36;99526.63;7310096;19;130152;-41
2022/06/29 02:22:58;;;;;;;24.30;3.00;;;;;;;26.98;51.44;99543.06;7309785;19;129190;-39
2022/06/29 02:25:23;;;;;;;27.20;3.13;;;;;;;26.99;51.59;99534.16;7309977;19;128754;-39
2022/06/29 02:27:49;;;;;;;23.47;2.53;;;;;;;26.92;52.03;99524.28;7306838;19;130230;-36
2022/06/29 02:30:16;;;;;;;15.70;2.23;;;;;;;27.00;51.93;99535.78;7310228;19;129128;-40
2022/06/29 02:35:27;;;;;;;32.47;3.67;;;;;;;26.50;47.60;99529.16;7312944;19;129409;-37
2022/06/29 02:37:52;;;;;;;16.97;1.90;;;;;;;26.23;47.48;99529.59;7315771;19;129804;-41
2022/06/29 02:40:18;;;;;;;22.23;2.63;;;;;;;26.13;47.45;99512.38;7317602;19;129559;-39
2022/06/29 02:42:43;;;;;;;6.40;1.13;;;;;;;26.19;47.36;99520.41;7316187;19;129680;-40
2022/06/29 02:45:11;;;;;;;25.47;3.03;;;;;;;26.47;51.96;99521.59;7315084;19;129179;-39
2022/06/29 02:47:36;;;;;;;13.75;1.92;;;;;;;26.64;50.73;99515.22;7315155;19;128890;-38
2022/06/29 02:50:02;;;;;;;30.70;3.47;;;;;;;26.78;50.82;99522.44;7317973;19;130823;-38
2022/06/29 02:52:28;;;;;;;19.43;2.47;;;;;;;26.86;51.09;99518.91;7317111;19;130209;-37
2022/06/29 02:54:53;;;;;;;59.57;6.00;;;;;;;26.90;51.16;99521.03;7317104;19;129623;-41
2022/06/29 02:57:20;;;;;;;31.33;3.43;;;;;;;26.94;51.66;99521.47;7314157;19;129916;-40
2022/06/29 02:59:45;;;;;;;20.77;2.67;;;;;;;26.93;51.27;99515.41;7317735;19;131113;-38
2022/06/29 03:02:11;;;;;;;13.20;1.90;;;;;;;26.97;52.10;99515.03;7316229;19;130607;-40
2022/06/29 03:04:36;;;;;;;26.27;3.20;;;;;;;26.99;52.36;99507.78;7316290;19;129467;-39
2022/06/29 03:07:02;;;;;;;17.83;2.40;;;;;;;26.97;51.68;99499.22;7315000;19;130214;-37
2022/06/29 03:09:28;;;;;;;27.17;3.03;;;;;;;26.97;51.33;99494.75;7316512;19;130070;-39
2022/06/29 03:11:54;;;;;;;20.30;2.27;;;;;;;26.73;48.25;99497.56;7316139;19;130382;-39
2022/06/29 03:14:19;;;;;;;23.67;2.67;;;;;;;26.31;48.31;99497.94;7315777;19;128917;-38
2022/06/29 03:16:44;;;;;;;25.57;3.00;;;;;;;26.20;47.53;99506.22;7313876;19;129206;-40
2022/06/29 03:19:10;;;;;;;30.13;3.57;;;;;;;26.12;47.32;99506.25;7315375;19;130495;-37
2022/06/29 03:21:35;;;;;;;19.43;2.37;;;;;;;26.29;49.63;99520.19;7315077;19;129240;-39
2022/06/29 03:24:03;;;;;;;23.40;2.80;;;;;;;26.52;51.64;99516.63;7315586;19;129754;-41
2022/06/29 03:26:29;;;;;;;9.30;1.50;;;;;;;26.70;52.15;99519.84;7315347;19;129132;-37
2022/06/29 03:28:55;;;;;;;23.10;2.77;;;;;;;26.79;50.85;99523.25;7314477;19;129200;-39
2022/06/29 03:31:20;;;;;;;21.40;2.60;;;;;;;26.87;51.71;99516.09;7317059;19;133142;-40
2022/06/29 03:33:46;;;;;;;23.10;2.97;;;;;;;26.90;51.82;99526.31;7315374;19;131160;-39
2022/06/29 03:36:11;;;;;;;23.17;2.50;;;;;;;26.93;51.33;99518.03;7314270;19;129313;-38
2022/06/29 03:38:37;;;;;;;17.33;2.10;;;;;;;26.94;51.26;99522.31;7316172;19;129830;-40
2022/06/29 03:41:02;;;;;;;24.70;3.07;;;;;;;26.97;51.48;99522.97;7314506;19;130006;-40
2022/06/29 03:43:28;;;;;;;28.77;3.43;;;;;;;26.91;51.59;99506.84;7314534;19;129190;-41
2022/06/29 03:45:53;;;;;;;25.67;3.17;;;;;;;26.98;52.01;99514.88;7314024;19;129919;-39
2022/06/29 03:48:19;;;;;;;22.50;2.87;;;;;;;27.00;51.66;99509.41;7314414;19;130851;-37
2022/06/29 03:50:44;;;;;;;33.77;3.30;;;;;;;26.67;47.98;99503.53;7310508;19;131097;-38
2022/06/29 03:53:09;;;;;;;33.53;3.43;;;;;;;26.22;47.66;99496.34;7309172;19;130247;-39
2022/06/29 03:55:35;;;;;;;54.17;4.97;;;;;;;26.21;47.76;99507.06;7310471;19;130334;-40
2022/06/29 03:58:00;;;;;;;27.10;3.17;;;;;;;26.19;47.87;99501.97;7309533;19;129394;-40
2022/06/29 04:00:25;;;;;;;22.10;2.67;;;;;;;26.29;48.54;99491.19;7313482;19;130463;-40
2022/06/29 04:02:51;;;;;;;35.50;3.97;;;;;;;26.56;51.22;99501.28;7310882;19;129156;-39
2022/06/29 04:05:16;;;;;;;21.90;2.50;;;;;;;26.70;51.64;99493.47;7311309;19;129001;-38
2022/06/29 04:07:42;;;;;;;11.03;1.70;;;;;;;26.79;51.70;99492.41;7309332;19;130844;-40
2022/06/29 04:10:08;;;;;;;23.33;2.80;;;;;;;26.85;50.70;99506.72;7312707;19;129251;-40
2022/06/29 04:12:35;;;;;;;43.40;4.57;;;;;;;26.90;50.91;99505.22;7312933;19;129314;-36
2022/06/29 04:15:02;;;;;;;38.33;4.13;;;;;;;26.93;51.10;99504.84;7313513;19;129077;-38
2022/06/29 04:17:28;;;;;;;46.15;5.20;;;;;;;26.96;51.29;99502.88;7308749;19;130911;-39
2022/06/29 04:19:53;;;;;;;20.73;2.53;;;;;;;26.96;50.92;99508.13;7312517;19;130254;-41
2022/06/29 04:22:20;;;;;;;30.00;3.27;;;;;;;26.95;51.40;99502.03;7312448;19;129108;-39
2022/06/29 04:24:46;;;;;;;31.38;3.65;;;;;;;26.97;52.06;99507.97;7312504;19;129206;-38
2022/06/29 04:27:12;;;;;;;24.10;2.90;;;;;;;26.97;51.77;99491.28;7310939;19;130168;-39
2022/06/29 04:29:37;;;;;;;24.45;2.83;;;;;;;26.38;47.91;99485.72;7310335;19;130273;-40
2022/06/29 04:32:04;;;;;;;28.17;3.33;;;;;;;26.26;48.05;99486.28;7312507;19;129240;-41
2022/06/29 04:34:29;;;;;;;33.10;3.60;;;;;;;26.22;47.92;99483.16;7311876;19;129336;-37
2022/06/29 04:36:54;;;;;;;56.67;5.23;;;;;;;26.21;47.54;99480.72;7307353;19;130362;-39
2022/06/29 04:39:20;;;;;;;19.40;2.23;;;;;;;26.45;50.90;99488.47;7313517;19;129832;-39
2022/06/29 04:41:45;;;;;;;18.47;2.07;;;;;;;26.65;51.54;99495.81;7311593;19;129827;-37
2022/06/29 04:44:11;;;;;;;17.87;2.30;;;;;;;26.77;51.70;99501.50;7313823;19;129082;-37
2022/06/29 04:46:36;;;;;;;50.30;5.27;;;;;;;26.83;51.64;99500.78;7308548;19;129047;-40
2022/06/29 04:49:02;;;;;;;20.97;2.80;;;;;;;26.89;51.36;99503.53;7311536;19;129930;-40
2022/06/29 04:51:30;;;;;;;22.83;2.67;;;;;;;26.93;51.51;99504.84;7312717;19;129113;-39
2022/06/29 04:53:56;;;;;;;18.92;2.15;;;;;;;26.97;51.76;99504.50;7311337;19;130049;-35
2022/06/29 04:56:24;;;;;;;23.58;2.72;;;;;;;26.98;51.64;99508.75;7311188;19;131306;-41
2022/06/29 04:58:51;;;;;;;29.90;3.05;;;;;;;26.96;51.34;99508.94;7309775;19;130682;-39
2022/06/29 05:01:18;;;;;;;33.65;3.83;;;;;;;26.96;51.67;99502.88;7309036;19;129603;-40
2022/06/29 05:03:44;;;;;;;30.77;3.38;;;;;;;26.96;51.91;99489.66;7311741;19;130145;-40
2022/06/29 05:06:09;;;;;;;22.57;2.50;;;;;;;26.86;48.90;99501.25;7309655;19;129892;-41
2022/06/29 05:08:35;;;;;;;28.33;3.40;;;;;;;26.32;48.18;99494.31;7312134;19;129833;-40
2022/06/29 05:11:00;;;;;;;26.70;3.10;;;;;;;26.22;47.43;99493.72;7309387;19;130429;-41
2022/06/29 05:13:25;;;;;;;22.27;2.60;;;;;;;26.20;47.24;99500.97;7311855;19;131139;-38
2022/06/29 05:15:51;;;;;;;47.10;4.57;;;;;;;26.25;48.58;99498.63;7310437;19;129608;-40
2022/06/29 05:18:16;;;;;;;16.00;2.03;;;;;;;26.54;51.32;99504.06;7311639;19;129831;-36
2022/06/29 05:20:42;;;;;;;22.67;2.83;;;;;;;26.69;51.60;99507.63;7311597;19;128939;-40
2022/06/29 05:23:09;;;;;;;9.93;1.45;;;;;;;26.78;50.96;99496.06;7309614;19;129411;-39
2022/06/29 05:25:34;;;;;;;;;;;;;;;26.97;52.78;99500.03;7311608;19;130848;-40
2022/06/29 05:28:00;;;;;;;17.38;2.40;;;;;;;26.91;51.23;99491.00;7310315;19;130236;-37
2022/06/29 05:30:25;;;;;;;22.30;2.80;;;;;;;26.92;51.76;99484.72;7310468;19;129201;-39
2022/06/29 05:32:51;;;;;;;10.13;1.73;;;;;;;26.94;51.82;99488.00;7312270;19;129127;-40
2022/06/29 05:35:16;;;;;;;25.30;2.70;;;;;;;26.97;51.64;99499.22;7311255;19;130116;-37
2022/06/29 05:37:42;;;;;;;19.10;2.37;;;;;;;26.97;51.77;99497.41;7310185;19;129958;-40
2022/06/29 05:40:07;;;;;;;15.27;1.97;;;;;;;26.97;51.53;99496.56;7313322;19;129215;-40
2022/06/29 05:42:33;;;;;;;25.40;3.37;;;;;;;26.96;51.75;99487.03;7309838;19;129079;-37
2022/06/29 05:44:58;;;;;;;26.73;3.10;;;;;;;26.69;48.19;99497.09;7309864;19;131760;-39
2022/06/29 05:47:24;;;;;;;41.77;4.83;;;;;;;26.29;47.60;99488.56;7307712;19;129602;-37
2022/06/29 05:49:49;;;;;;;10.03;1.83;;;;;;;26.21;47.75;99484.16;7312764;19;129134;-40
2022/06/29 05:52:14;;;;;;;16.00;2.20;;;;;;;26.16;47.81;99481.22;7311476;19;128871;-40
2022/06/29 05:54:40;;;;;;;22.57;2.43;;;;;;;26.28;49.03;99487.75;7311291;19;129381;-41
2022/06/29 05:57:06;;;;;;;30.90;3.77;;;;;;;26.55;51.26;99489.91;7307903;19;130951;-40
2022/06/29 05:59:32;;;;;;;27.50;3.15;;;;;;;26.69;51.23;99486.53;7310906;19;129565;-39
2022/06/29 06:01:57;;;;;;;28.27;3.33;;;;;;;26.79;51.06;99488.97;7311324;19;129464;-37
2022/06/29 06:04:23;;;;;;;38.53;4.43;;;;;;;26.87;51.46;99489.69;7309205;19;129176;-40
2022/06/29 06:06:48;;;;;;;17.03;2.27;;;;;;;26.92;51.64;99495.28;7309784;19;129903;-37
2022/06/29 06:09:14;;;;;;;16.40;2.13;;;;;;;26.92;51.65;99492.63;7311651;19;128895;-40
2022/06/29 06:11:39;;;;;;;27.97;3.40;;;;;;;26.92;51.22;99495.28;7315995;19;129954;-36
2022/06/29 06:14:04;;;;;;;31.60;3.70;;;;;;;26.97;52.21;99489.50;7316444;19;130047;-40
2022/06/29 06:16:30;;;;;;;46.87;5.27;;;;;;;26.96;51.16;99497.59;7314400;19;129555;-39
2022/06/29 06:18:55;;;;;;;21.27;2.77;;;;;;;26.98;52.45;99491.13;7318861;19;129014;-38
2022/06/29 06:21:21;;;;;;;22.10;2.90;;;;;;;26.99;52.16;99489.31;7313411;19;129723;-38
2022/06/29 06:23:47;;;;;;;5.18;1.27;;;;;;;26.38;48.00;99488.34;7317793;19;130336;-40
2022/06/29 06:26:13;;;;;;;33.70;3.67;;;;;;;26.26;47.75;99497.63;7314631;19;129381;-38
2022/06/29 06:28:39;;;;;;;11.27;2.13;;;;;;;26.21;47.94;99485.97;7316898;19;129933;-41
2022/06/29 06:31:05;;;;;;;;;;;;;;;26.15;47.27;99490.09;7318602;19;129515;-39
2022/06/29 06:33:31;;;;;;;21.20;3.10;;;;;;;26.36;50.60;99495.59;7316977;19;129183;-37
2022/06/29 06:35:56;;;;;;;27.67;3.37;;;;;;;26.60;51.47;99505.19;7316119;19;130195;-40
2022/06/29 06:38:22;;;;;;;19.23;2.73;;;;;;;26.74;51.26;99515.84;7316359;19;129283;-41
2022/06/29 06:43:31;;;;;;;23.95;3.25;;;;;;;26.88;51.30;99516.91;7314092;19;129874;-41
2022/06/29 06:45:56;;;;;;;28.40;3.53;;;;;;;26.90;51.73;99521.03;7314762;19;130306;-38
2022/06/29 06:48:21;;;;;;;25.83;3.43;;;;;;;26.93;51.31;99515.41;7313293;19;129333;-38
2022/06/29 06:50:47;;;;;;;29.43;4.07;;;;;;;26.96;52.27;99518.69;7312040;19;129041;-41
2022/06/29 06:53:12;;;;;;;22.77;3.13;;;;;;;26.96;51.89;99526.59;7314223;19;130867;-39
2022/06/29 06:55:37;;;;;;;38.70;4.57;;;;;;;26.98;51.64;99524.59;7315179;19;129377;-37
2022/06/29 06:58:03;;;;;;;28.77;3.77;;;;;;;26.93;50.70;99525.13;7314396;19;130352;-40
2022/06/29 07:00:29;;;;;;;34.37;3.97;;;;;;;26.32;48.61;99520.69;7313124;19;129919;-37
2022/06/29 07:02:54;;;;;;;24.40;3.37;;;;;;;26.26;48.13;99515.28;7312550;19;130249;-38
2022/06/29 07:05:20;;;;;;;18.80;2.57;;;;;;;26.23;47.48;99516.41;7316706;19;129294;-38
2022/06/29 07:07:46;;;;;;;17.17;2.67;;;;;;;26.24;47.27;99506.72;7313394;19;129279;-38
2022/06/29 07:10:11;;;;;;;16.73;2.43;;;;;;;26.42;50.97;99500.19;7318057;19;129470;-37
2022/06/29 07:12:37;;;;;;;34.50;4.20;;;;;;;26.65;51.09;99500.22;7316056;19;129252;-36
2022/06/29 07:15:03;;;;;;;21.53;3.03;;;;;;;26.76;50.54;99498.03;7316350;19;129214;-41
2022/06/29 07:17:28;;;;;;;28.65;4.25;;;;;;;26.83;51.67;99498.97;7314267;19;130626;-41
2022/06/29 07:19:54;;;;;;;20.00;3.00;;;;;;;26.90;52.52;99494.66;7317256;19;128927;-37
2022/06/29 07:22:19;;;;;;;18.43;2.80;;;;;;;26.92;51.83;99497.13;7313204;19;129191;-39
2022/06/29 07:24:44;;;;;;;36.10;4.47;;;;;;;26.88;51.76;99483.44;7316251;19;129601;-40
2022/06/29 07:27:10;;;;;;;20.97;3.37;;;;;;;26.97;51.47;99480.75;7314744;19;129190;-39
2022/06/29 07:29:36;;;;;;;19.77;3.30;;;;;;;26.98;51.59;99485.00;7316493;19;130276;-38
2022/06/29 07:32:01;;;;;;;23.47;3.50;;;;;;;26.91;51.91;99480.44;7316011;19;131029;-39
2022/06/29 07:34:27;;;;;;;25.07;3.70;;;;;;;26.59;48.68;99495.66;7315586;19;131303;-38
2022/06/29 07:36:52;;;;;;;39.60;5.07;;;;;;;26.29;48.28;99494.66;7313451;19;128978;-39
2022/06/29 07:39:18;;;;;;;13.37;2.47;;;;;;;26.28;48.48;99498.28;7315868;19;129171;-42
2022/06/29 07:41:43;;;;;;;23.97;3.30;;;;;;;26.16;47.43;99491.78;7313261;19;132509;-40
2022/06/29 07:44:08;;;;;;;27.70;3.73;;;;;;;26.27;47.58;99512.47;7313318;19;130196;-38
2022/06/29 07:46:34;;;;;;;37.33;4.50;;;;;;;26.51;51.14;99506.25;7313326;19;129071;-40
2022/06/29 07:48:59;;;;;;;25.00;3.63;;;;;;;26.68;52.02;99510.44;7316689;19;129194;-40
2022/06/29 07:51:25;;;;;;;19.93;2.90;;;;;;;26.78;51.26;99505.78;7316591;19;130332;-37
2022/06/29 07:53:50;;;;;;;25.30;3.50;;;;;;;26.85;50.58;99512.81;7315042;19;129301;-39
2022/06/29 07:56:15;;;;;;;32.23;4.10;;;;;;;26.90;51.44;99515.75;7314899;19;129511;-38
2022/06/29 07:58:41;;;;;;;15.33;2.60;;;;;;;26.93;51.16;99515.41;7316181;19;129936;-37
2022/06/29 08:01:06;;;;;;;20.07;3.07;;;;;;;26.96;51.96;99513.41;7316917;19;130217;-40
2022/06/29 08:03:32;;;;;;;34.60;4.10;;;;;;;26.97;51.69;99504.50;7313752;19;129058;-37
2022/06/29 08:06:00;;;;;;;21.83;3.10;;;;;;;26.97;52.68;99501.84;7314742;19;129093;-40
2022/06/29 08:08:27;;;;;;;23.80;3.53;;;;;;;26.97;51.81;99509.78;7314986;19;129242;-40
2022/06/29 08:10:52;;;;;;;31.00;4.45;;;;;;;26.96;51.96;99502.88;7314865;19;129176;-38
2022/06/29 08:13:18;;;;;;;15.57;2.57;;;;;;;26.97;51.45;99504.50;7315324;19;129420;-36
2022/06/29 08:15:45;;;;;;;16.83;2.63;;;;;;;26.33;48.33;99497.78;7314119;19;129601;-38
2022/06/29 08:18:14;;;;;;;21.60;3.25;;;;;;;26.23;47.71;99505.88;7312357;19;129940;-40
2022/06/29 08:20:40;;;;;;;17.02;2.30;;;;;;;26.24;47.79;99502.28;7314688;19;129872;-38
2022/06/29 08:23:05;;;;;;;15.17;2.67;;;;;;;26.24;47.08;99510.19;7313827;19;131488;-41
2022/06/29 08:25:31;;;;;;;31.33;4.10;;;;;;;26.40;51.49;99496.91;7313618;19;129248;-40
2022/06/29 08:27:57;;;;;;;20.43;2.87;;;;;;;26.65;51.42;99513.41;7311902;19;129840;-41
2022/06/29 08:30:23;;;;;;;19.90;3.00;;;;;;;26.76;50.98;99523.59;7315760;19;130067;-40
2022/06/29 08:32:49;;;;;;;16.47;2.60;;;;;;;26.85;51.13;99523.38;7314611;19;129236;-38
2022/06/29 08:35:16;;;;;;;15.33;2.30;;;;;;;26.89;51.88;99527.28;7315168;19;129278;-40
2022/06/29 08:37:43;;;;;;;30.98;3.55;;;;;;;26.92;52.21;99523.50;7311500;19;128970;-37
2022/06/29 08:40:11;;;;;;;21.55;3.22;;;;;;;26.94;51.95;99524.94;7313958;19;129809;-40
2022/06/29 08:42:37;;;;;;;35.88;4.28;;;;;;;26.94;52.23;99527.59;7313164;19;130004;-39
2022/06/29 08:45:04;;;;;;;21.90;3.03;;;;;;;26.95;52.26;99531.06;7312881;19;129271;-40
2022/06/29 08:47:30;;;;;;;25.85;3.28;;;;;;;26.96;52.09;99534.53;7310676;19;129081;-38
2022/06/29 08:49:56;;;;;;;19.93;3.03;;;;;;;26.97;51.94;99525.59;7312917;19;130820;-37
2022/06/29 08:52:24;;;;;;;18.55;2.50;;;;;;;26.47;48.16;99516.31;7313616;19;131108;-39
2022/06/29 08:54:52;;;;;;;26.75;3.78;;;;;;;26.31;48.11;99513.75;7312045;19;128923;-41
2022/06/29 08:57:18;;;;;;;20.55;2.60;;;;;;;26.27;47.86;99507.19;7312478;19;129971;-39
2022/06/29 08:59:45;;;;;;;22.85;2.80;;;;;;;26.26;47.54;99507.38;7313497;19;129430;-38
2022/06/29 09:02:12;;;;;;;13.00;2.10;;;;;;;26.41;51.38;99503.81;7313971;19;129281;-38
2022/06/29 09:04:38;;;;;;;24.50;3.10;;;;;;;26.61;51.71;99504.22;7314077;19;128917;-39
2022/06/29 09:07:04;;;;;;;16.30;2.77;;;;;;;26.66;51.33;99492.16;7310629;19;129300;-40
2022/06/29 09:09:29;;;;;;;16.77;2.80;;;;;;;26.82;50.59;99502.59;7313385;19;129404;-39
2022/06/29 09:11:55;;;;;;;24.40;3.10;;;;;;;26.89;51.06;99500.91;7313378;19;130405;-40
2022/06/29 09:14:23;;;;;;;21.43;2.90;;;;;;;26.91;51.43;99500.72;7314018;19;129335;-35
2022/06/29 09:16:53;;;;;;;21.00;2.92;;;;;;;26.93;52.51;99498.75;7310143;19;129466;-39
2022/06/29 09:19:20;;;;;;;19.10;2.65;;;;;;;26.93;51.98;99504.84;7313978;19;130551;-39
2022/06/29 09:21:49;;;;;;;20.00;2.85;;;;;;;26.93;52.27;99499.56;7313367;19;130248;-40
2022/06/29 09:24:23;;;;;;;21.90;3.20;;;;;;;26.94;51.94;99500.38;7313510;19;130615;-40
2022/06/29 09:26:53;;;;;;;16.27;2.28;;;;;;;26.94;53.13;99497.72;7311442;19;128792;-39
2022/06/29 09:29:21;;;;;;;15.85;2.00;;;;;;;26.94;52.69;99495.94;7311915;19;129224;-39
2022/06/29 09:32:01;;;;;;;14.20;2.10;;;;;;;26.34;47.97;99496.78;7313656;19;131424;-40
2022/06/29 09:34:47;;;;;;;24.85;3.08;;;;;;;26.24;47.73;99490.91;7311921;19;130331;-36
2022/06/29 09:37:15;;;;;;;19.40;2.42;;;;;;;26.21;48.37;99492.06;7310958;19;129333;-38
2022/06/29 09:39:41;;;;;;;17.88;2.67;;;;;;;26.23;48.04;99491.91;7312264;19;132061;-40
2022/06/29 09:42:19;;;;;;;16.87;2.37;;;;;;;26.48;52.65;99496.03;7312310;19;130314;-36
2022/06/29 09:44:46;;;;;;;29.13;3.53;;;;;;;26.64;50.77;99494.13;7310559;19;128907;-38
2022/06/29 09:47:17;;;;;;;15.48;2.30;;;;;;;26.76;51.76;99495.41;7309773;19;129308;-40
2022/06/29 09:49:53;;;;;;;8.80;1.70;;;;;;;26.84;52.79;99495.34;7312092;19;130399;-40
2022/06/29 09:52:19;;;;;;;18.25;2.30;;;;;;;26.87;50.82;99500.25;7312511;19;129479;-38
2022/06/29 09:54:53;;;;;;;37.17;3.97;;;;;;;26.91;52.91;99506.00;7312824;19;129253;-40
2022/06/29 09:57:29;;;;;;;17.85;2.45;;;;;;;26.86;53.35;99485.44;7309019;19;130156;-39
2022/06/29 10:02:45;;;;;;;25.30;3.13;;;;;;;26.87;51.38;99488.91;7308939;19;129375;-41
2022/06/29 10:05:14;;;;;;;11.53;1.77;;;;;;;26.94;52.92;99495.94;7311054;19;129014;-39
2022/06/29 10:07:45;;;;;;;21.95;2.83;;;;;;;26.94;53.13;99480.09;7309425;19;129399;-40
2022/06/29 10:10:16;;;;;;;24.58;3.00;;;;;;;26.43;48.34;99469.38;7311100;19;130911;-38
2022/06/29 10:16:02;;;;;;;23.77;3.00;;;;;;;26.21;47.54;99471.00;7310191;19;129084;-40
2022/06/29 10:18:31;;;;;;;23.02;2.92;;;;;;;26.21;47.39;99455.19;7311360;19;128739;-41
2022/06/29 10:20:57;;;;;;;20.48;3.05;;;;;;;26.41;51.93;99458.19;7310804;19;130168;-39
2022/06/29 10:23:55;;;;;;;17.08;2.45;;;;;;;26.63;52.72;99455.56;7309343;19;129236;-40
2022/06/29 10:26:39;;;;;;;14.30;2.40;;;;;;;26.78;52.86;99450.38;7308905;19;130521;-36
2022/06/29 10:29:07;;;;;;;21.55;2.65;;;;;;;26.84;52.25;99463.69;7312142;19;129497;-39
2022/06/29 10:31:54;;;;;;;22.77;3.03;;;;;;;26.86;52.68;99466.13;7310492;19;130143;-40
2022/06/29 10:34:32;;;;;;;7.90;1.60;;;;;;;26.85;53.10;99459.22;7310896;19;130559;-38
2022/06/29 10:37:01;;;;;;;19.63;2.60;;;;;;;26.90;52.28;99473.53;7308349;19;129711;-39
2022/06/29 10:39:27;;;;;;;21.17;3.08;;;;;;;26.91;51.67;99472.53;7311433;19;128994;-39
2022/06/29 10:44:58;;;;;;;24.17;2.95;;;;;;;26.94;53.63;99469.53;7311190;19;130046;-39
2022/06/29 10:47:23;;;;;;;34.77;3.83;;;;;;;26.93;52.34;99469.72;7307419;19;129561;-39
2022/06/29 10:50:09;;;;;;;12.80;2.07;;;;;;;26.41;47.82;99472.19;7310493;19;128968;-35
2022/06/29 10:52:37;;;;;;;24.60;3.05;;;;;;;26.23;47.83;99458.44;7310394;19;129366;-41
2022/06/29 10:55:03;;;;;;;25.73;3.00;;;;;;;26.20;47.86;99453.53;7309405;19;131579;-40
2022/06/29 10:57:33;;;;;;;24.95;3.13;;;;;;;26.21;47.33;99455.19;7313990;19;129736;-41
2022/06/29 10:59:58;;;;;;;27.58;3.63;;;;;;;26.41;51.42;99445.81;7316608;19;129029;-38
2022/06/29 11:02:23;;;;;;;22.93;2.70;;;;;;;26.62;51.38;99448.66;7316533;19;129935;-41
2022/06/29 11:04:48;;;;;;;34.17;4.10;;;;;;;26.74;50.66;99449.91;7316283;19;130359;-40
2022/06/29 11:12:49;;;;;;;16.25;2.13;;;;;;;26.89;52.59;99466.59;7317823;19;129261;-39
2022/06/29 11:18:21;;;;;;;17.23;2.47;;;;;;;26.91;51.73;99454.06;7314981;19;130052;-37
2022/06/29 11:20:49;;;;;;;15.10;2.05;;;;;;;26.91;52.25;99461.16;7317666;19;129160;-37
2022/06/29 11:23:16;;;;;;;20.83;2.55;;;;;;;26.85;52.17;99448.69;7314895;19;130152;-40
2022/06/29 11:25:45;;;;;;;14.55;2.20;;;;;;;26.73;49.24;99466.75;7316329;19;130340;-39
2022/06/29 11:28:12;;;;;;;16.00;2.40;;;;;;;26.28;48.46;99455.31;7313866;19;128949;-39
2022/06/29 11:30:38;;;;;;;20.08;2.97;;;;;;;26.21;48.30;99456.97;7316914;19;130200;-40
2022/06/29 11:33:10;;;;;;;43.03;4.57;;;;;;;26.19;47.43;99451.06;7315279;19;129486;-41
2022/06/29 11:35:38;;;;;;;25.80;3.08;;;;;;;26.25;47.75;99455.63;7315692;19;130513;-38
2022/06/29 11:38:05;;;;;;;16.08;2.40;;;;;;;26.48;51.37;99456.47;7314071;19;129160;-41
2022/06/29 11:40:36;;;;;;;23.67;2.95;;;;;;;26.64;52.77;99451.91;7313996;19;131417;-40